createdAt,value
2019-01-28T00:00:17.897Z,8.50
2019-01-28T00:06:21.400Z,8.93
2019-01-28T00:09:09.484Z,6.57
2019-01-28T00:11:57.526Z,6.93
2019-01-28T00:14:45.565Z,9.73
2019-01-28T00:17:26.472Z,7.93
2019-01-28T00:20:07.578Z,8.83
2019-01-28T00:22:48.589Z,7.17
2019-01-28T00:25:29.998Z,7.73
2019-01-28T00:28:11.181Z,6.87
2019-01-28T00:30:52.646Z,7.30
2019-01-28T00:33:33.849Z,6.97
2019-01-28T00:36:15.301Z,6.20
2019-01-28T00:38:55.811Z,8.07
2019-01-28T00:41:37.045Z,7.80
2019-01-28T00:44:16.081Z,7.30
2019-01-28T00:47:04.210Z,8.43
2019-01-28T00:49:52.252Z,6.17
2019-01-28T00:52:40.365Z,8.00
2019-01-28T00:55:28.401Z,6.37
2019-01-28T00:58:16.417Z,9.80
2019-01-28T01:01:04.533Z,7.10
2019-01-28T01:03:52.553Z,4.73
2019-01-28T01:06:40.697Z,5.87
2019-01-28T01:09:48.659Z,6.00
2019-01-28T01:12:36.777Z,5.47
2019-01-28T01:15:15.861Z,6.83
2019-01-28T01:18:03.984Z,5.87
2019-01-28T01:20:32.729Z,6.17
2019-01-28T01:23:20.759Z,6.37
2019-01-28T01:26:08.806Z,7.40
2019-01-28T01:28:56.828Z,4.87
2019-01-28T01:31:44.885Z,5.07
2019-01-28T01:34:32.908Z,5.53
2019-01-28T01:37:20.953Z,4.77
2019-01-28T01:40:28.839Z,4.97
2019-01-28T01:43:16.893Z,4.83
2019-01-28T01:46:04.929Z,5.27
2019-01-28T01:48:52.977Z,6.60
2019-01-28T01:52:00.877Z,5.33
2019-01-28T01:54:49.001Z,3.90
2019-01-28T01:57:37.041Z,3.27
2019-01-28T02:00:25.138Z,4.40
2019-01-28T02:03:13.191Z,6.30
2019-01-28T02:06:01.225Z,2.97
2019-01-28T02:08:49.331Z,3.03
2019-01-28T02:11:37.453Z,3.60
2019-01-28T02:14:25.658Z,4.07
2019-01-28T02:17:06.222Z,2.50
2019-01-28T02:19:47.073Z,4.47
2019-01-28T02:22:28.478Z,4.83
2019-01-28T02:25:09.650Z,2.97
2019-01-28T02:27:50.877Z,2.60
2019-01-28T02:30:32.075Z,2.73
2019-01-28T02:33:13.403Z,4.17
2019-01-28T02:35:53.912Z,3.10
2019-01-28T02:38:34.999Z,4.83
2019-01-28T02:41:16.405Z,4.83
2019-01-28T02:46:46.758Z,2.73
2019-01-28T02:49:27.994Z,2.40
2019-01-28T02:52:09.245Z,3.37
2019-01-28T02:54:52.315Z,2.43
2019-01-28T02:57:33.454Z,2.10
2019-01-28T03:03:02.813Z,4.77
2019-01-28T03:05:44.097Z,3.37
2019-01-28T03:16:49.483Z,3.33
2019-01-28T03:22:12.828Z,3.40
2019-01-28T03:24:53.804Z,5.27
2019-01-28T03:27:35.830Z,3.97
2019-01-28T03:30:16.874Z,3.27
2019-01-28T03:32:58.343Z,5.60
2019-01-28T03:35:39.322Z,2.63
2019-01-28T03:38:20.544Z,1.97
2019-01-28T03:41:01.727Z,8.13
2019-01-28T03:43:42.571Z,2.70
2019-01-28T03:46:23.764Z,2.83
2019-01-28T03:49:04.249Z,3.10
2019-01-28T03:51:47.576Z,2.93
2019-01-28T03:54:28.652Z,2.27
2019-01-28T03:57:09.800Z,4.27
2019-01-28T03:59:50.844Z,2.50
2019-01-28T04:13:50.045Z,2.63
2019-01-28T04:22:03.265Z,2.50
2019-01-28T04:24:44.654Z,2.13
2019-01-28T04:27:25.968Z,3.30
2019-01-28T04:30:07.371Z,3.10
2019-01-28T04:32:48.548Z,2.47
2019-01-28T04:35:30.001Z,2.80
2019-01-28T04:38:11.365Z,2.70
2019-01-28T04:40:52.625Z,2.93
2019-01-28T04:43:33.134Z,3.40
2019-01-28T04:46:13.712Z,3.50
2019-01-28T04:48:55.182Z,3.30
2019-01-28T04:51:36.040Z,3.73
2019-01-28T04:54:16.950Z,4.80
2019-01-28T04:56:57.595Z,4.70
2019-01-28T04:59:38.544Z,6.50
2019-01-28T05:02:19.929Z,5.17
2019-01-28T05:05:01.320Z,5.10
2019-01-28T05:07:42.445Z,5.30
2019-01-28T05:10:23.804Z,6.00
2019-01-28T05:13:05.222Z,6.50
2019-01-28T05:15:46.514Z,6.27
2019-01-28T05:18:27.622Z,6.87
2019-01-28T05:21:08.741Z,7.00
2019-01-28T05:23:50.107Z,6.63
2019-01-28T05:26:30.813Z,6.73
2019-01-28T05:29:11.946Z,5.90
2019-01-28T05:34:40.308Z,6.33
2019-01-28T05:40:11.778Z,5.90
2019-01-28T05:45:44.392Z,6.20
2019-01-28T05:51:08.335Z,6.07
2019-01-28T05:56:32.855Z,6.70
2019-01-28T06:01:59.576Z,7.43
2019-01-28T06:07:24.671Z,7.50
2019-01-28T06:10:05.886Z,8.80
2019-01-28T06:12:48.241Z,8.27
2019-01-28T06:18:20.409Z,7.67
2019-01-28T06:23:49.087Z,7.27
2019-01-28T06:26:29.490Z,6.63
2019-01-28T06:29:10.353Z,6.97
2019-01-28T06:31:50.899Z,7.07
2019-01-28T06:34:32.139Z,6.93
2019-01-28T06:37:12.602Z,6.87
2019-01-28T06:39:53.910Z,6.73
2019-01-28T06:42:35.182Z,7.53
2019-01-28T06:45:16.103Z,6.90
2019-01-28T06:47:57.501Z,6.17
2019-01-28T06:50:38.883Z,7.40
2019-01-28T06:53:20.303Z,5.70
2019-01-28T06:56:01.152Z,5.10
2019-01-28T07:07:13.246Z,7.40
2019-01-28T07:09:55.512Z,4.87
2019-01-28T07:12:36.787Z,5.37
2019-01-28T07:15:17.964Z,6.50
2019-01-28T07:17:59.085Z,4.63
2019-01-28T07:20:40.008Z,6.73
2019-01-28T07:23:21.293Z,5.37
2019-01-28T07:26:02.656Z,4.10
2019-01-28T07:28:43.751Z,4.57
2019-01-28T07:31:24.839Z,6.93
2019-01-28T07:34:06.261Z,6.03
2019-01-28T07:36:46.803Z,6.60
2019-01-28T07:39:28.230Z,6.50
2019-01-28T07:42:09.090Z,8.50
2019-01-28T07:44:50.393Z,9.50
2019-01-28T07:47:31.606Z,7.37
2019-01-28T07:50:12.107Z,7.17
2019-01-28T07:52:53.362Z,9.40
2019-01-28T07:55:34.811Z,5.70
2019-01-28T07:58:13.911Z,7.27
2019-01-28T08:01:01.953Z,6.57
2019-01-28T08:03:50.571Z,9.47
2019-01-28T08:06:19.634Z,9.20
2019-01-28T08:09:07.840Z,8.70
2019-01-28T08:12:15.753Z,10.00
2019-01-28T08:18:12.434Z,7.30
2019-01-28T08:21:00.462Z,6.10
2019-01-28T08:24:08.369Z,9.70
2019-01-28T08:26:56.430Z,10.80
2019-01-28T08:29:44.456Z,9.67
2019-01-28T08:32:32.588Z,13.37
2019-01-28T08:35:20.780Z,10.70
2019-01-28T08:38:21.327Z,9.37
2019-01-28T08:40:50.009Z,11.07
2019-01-28T08:43:38.068Z,11.83
2019-01-28T08:46:30.220Z,15.10
2019-01-28T08:49:35.796Z,14.90
2019-01-28T08:52:43.793Z,11.53
2019-01-28T08:55:31.886Z,12.47
2019-01-28T08:58:20.030Z,12.93
2019-01-28T09:01:08.068Z,12.07
2019-01-28T09:03:56.210Z,8.07
2019-01-28T09:06:44.231Z,8.03
2019-01-28T09:09:32.270Z,7.30
2019-01-28T09:12:20.310Z,11.40
2019-01-28T09:18:00.967Z,11.10
2019-01-28T09:20:41.646Z,7.90
2019-01-28T09:23:23.134Z,7.33
2019-01-28T09:26:04.401Z,7.83
2019-01-28T09:28:45.709Z,10.37
2019-01-28T09:31:26.265Z,8.87
2019-01-28T09:34:07.508Z,9.77
2019-01-28T09:36:48.993Z,9.17
2019-01-28T09:39:29.983Z,10.47
2019-01-28T09:42:11.362Z,11.53
2019-01-28T09:44:52.521Z,5.37
2019-01-28T09:47:33.697Z,5.57
2019-01-28T09:50:14.290Z,6.73
2019-01-28T09:52:55.424Z,6.00
2019-01-28T09:55:36.748Z,6.43
2019-01-28T09:58:18.029Z,5.40
2019-01-28T10:00:58.926Z,6.67
2019-01-28T10:03:38.030Z,8.77
2019-01-28T10:06:26.137Z,7.53
2019-01-28T10:09:14.261Z,8.30
2019-01-28T10:12:02.305Z,8.13
2019-01-28T10:14:50.404Z,7.90
2019-01-28T10:17:33.059Z,7.87
2019-01-28T10:20:13.891Z,8.07
2019-01-28T10:22:55.062Z,7.97
2019-01-28T10:25:36.251Z,8.00
2019-01-28T10:28:17.229Z,10.17
2019-01-28T10:30:58.685Z,7.03
2019-01-28T10:33:40.077Z,10.47
2019-01-28T10:36:22.718Z,7.97
2019-01-28T10:39:03.643Z,13.67
2019-01-28T10:41:44.610Z,11.93
2019-01-28T10:44:25.882Z,15.37
2019-01-28T10:47:07.284Z,12.80
2019-01-28T10:49:48.259Z,12.50
2019-01-28T10:52:29.574Z,12.23
2019-01-28T10:55:10.901Z,12.30
2019-01-28T10:57:52.469Z,12.43
2019-01-28T11:00:33.806Z,12.57
2019-01-28T11:03:15.167Z,11.93
2019-01-28T11:05:56.520Z,8.53
2019-01-28T11:08:37.821Z,10.37
2019-01-28T11:11:18.441Z,11.43
2019-01-28T11:13:59.941Z,14.13
2019-01-28T11:16:41.361Z,7.27
2019-01-28T11:19:21.939Z,10.00
2019-01-28T11:22:03.449Z,7.00
2019-01-28T11:24:44.788Z,8.27
2019-01-28T11:27:26.383Z,10.27
2019-01-28T11:30:07.517Z,10.13
2019-01-28T11:32:48.770Z,5.90
2019-01-28T11:35:30.152Z,9.73
2019-01-28T11:38:11.404Z,9.70
2019-01-28T11:40:52.927Z,9.50
2019-01-28T11:43:33.914Z,11.57
2019-01-28T11:46:15.161Z,9.27
2019-01-28T11:48:56.701Z,12.23
2019-01-28T11:51:37.811Z,7.80
2019-01-28T11:54:19.248Z,7.60
2019-01-28T11:57:00.535Z,10.40
2019-01-28T11:59:41.705Z,8.03
2019-01-28T12:02:22.910Z,9.00
2019-01-28T12:05:04.144Z,6.17
2019-01-28T12:07:45.576Z,4.87
2019-01-28T12:10:26.406Z,8.33
2019-01-28T12:13:05.561Z,11.57
2019-01-28T12:15:53.621Z,7.63
2019-01-28T12:18:34.923Z,3.53
2019-01-28T12:21:16.345Z,3.80
2019-01-28T12:23:57.401Z,5.93
2019-01-28T12:26:38.606Z,6.63
2019-01-28T12:29:19.957Z,7.97
2019-01-28T12:32:01.302Z,7.57
2019-01-28T12:34:41.859Z,3.83
2019-01-28T12:37:23.178Z,4.27
2019-01-28T12:40:04.353Z,5.90
2019-01-28T12:42:45.565Z,5.10
2019-01-28T12:45:25.428Z,5.10
2019-01-28T12:48:13.481Z,6.95
2019-01-28T12:51:21.369Z,6.77
2019-01-28T12:54:09.498Z,3.93
2019-01-28T12:57:04.161Z,8.30
2019-01-28T12:59:52.266Z,7.10
2019-01-28T13:02:40.347Z,8.03
2019-01-28T13:05:28.534Z,7.03
2019-01-28T13:08:16.588Z,8.40
2019-01-28T13:11:04.673Z,5.70
2019-01-28T13:13:52.715Z,6.10
2019-01-28T13:16:40.818Z,10.23
2019-01-28T13:19:29.879Z,6.23
2019-01-28T13:22:02.763Z,8.45
2019-01-28T13:24:50.824Z,10.23
2019-01-28T13:27:58.864Z,7.43
2019-01-28T13:30:46.917Z,8.97
2019-01-28T13:33:34.949Z,7.30
2019-01-28T13:36:23.010Z,16.80
2019-01-28T13:39:11.054Z,10.40
2019-01-28T13:41:59.086Z,4.93
2019-01-28T13:44:47.145Z,9.80
2019-01-28T13:47:35.244Z,10.80
2019-01-28T13:50:23.986Z,8.87
2019-01-28T13:53:12.082Z,11.53
2019-01-28T13:56:20.074Z,9.87
2019-01-28T13:59:15.937Z,12.20
2019-01-28T14:02:17.778Z,11.30
2019-01-28T14:05:06.320Z,11.63
2019-01-28T14:07:54.847Z,16.77
2019-01-28T14:10:43.061Z,10.85
2019-01-28T14:13:11.913Z,11.10
2019-01-28T14:16:00.045Z,8.20
2019-01-28T14:18:41.349Z,8.30
2019-01-28T14:21:22.564Z,8.30
2019-01-28T14:24:03.060Z,12.05
2019-01-28T14:26:44.153Z,12.10
2019-01-28T14:29:25.654Z,12.73
2019-01-28T14:32:07.902Z,11.10
2019-01-28T14:34:48.932Z,12.20
2019-01-28T14:37:29.740Z,13.78
2019-01-28T14:40:11.113Z,16.23
2019-01-28T14:42:52.167Z,14.10
2019-01-28T14:45:32.702Z,11.27
2019-01-28T14:48:13.655Z,10.77
2019-01-28T14:50:54.194Z,9.63
2019-01-28T14:53:35.139Z,9.77
2019-01-28T14:56:20.518Z,13.97
2019-01-28T14:59:01.878Z,9.90
2019-01-28T15:01:44.337Z,12.43
2019-01-28T15:07:08.127Z,13.10
2019-01-28T15:12:44.251Z,12.70
2019-01-28T15:15:22.773Z,10.48
2019-01-28T15:20:55.285Z,9.73
2019-01-28T15:23:36.289Z,13.63
2019-01-28T15:29:07.782Z,10.07
2019-01-28T15:34:34.049Z,8.83
2019-01-28T15:37:15.326Z,11.60
2019-01-28T15:39:58.741Z,9.17
2019-01-28T15:50:56.861Z,7.37
2019-01-28T15:53:37.909Z,6.83
2019-01-28T15:56:18.445Z,9.27
2019-01-28T15:58:59.023Z,7.90
2019-01-28T16:01:40.447Z,15.90
2019-01-28T16:04:21.788Z,9.50
2019-01-28T16:07:03.084Z,7.97
2019-01-28T16:09:44.242Z,11.77
2019-01-28T16:12:24.846Z,10.15
2019-01-28T16:15:06.238Z,9.93
2019-01-28T16:17:47.517Z,8.53
2019-01-28T16:20:30.992Z,8.10
2019-01-28T16:25:59.433Z,9.70
2019-01-28T16:28:40.835Z,8.50
2019-01-28T16:31:22.181Z,11.60
2019-01-28T16:39:43.753Z,10.57
2019-01-28T16:42:27.062Z,8.73
2019-01-28T16:45:07.834Z,11.40
2019-01-28T16:47:48.913Z,11.05
2019-01-28T16:50:30.197Z,7.80
2019-01-28T16:53:10.872Z,7.90
2019-01-28T16:55:51.889Z,8.77
2019-01-28T16:58:32.966Z,8.37
2019-01-28T17:01:14.346Z,6.43
2019-01-28T17:03:55.282Z,9.33
2019-01-28T17:06:36.050Z,10.43
2019-01-28T17:09:17.414Z,6.97
2019-01-28T17:11:58.020Z,6.40
2019-01-28T17:14:39.097Z,9.37
2019-01-28T17:17:20.454Z,10.03
2019-01-28T17:20:01.812Z,10.63
2019-01-28T17:22:43.073Z,11.90
2019-01-28T17:25:24.242Z,9.93
2019-01-28T17:28:05.497Z,8.77
2019-01-28T17:30:46.572Z,9.77
2019-01-28T17:33:27.966Z,10.53
2019-01-28T17:36:09.009Z,12.13
2019-01-28T17:38:49.712Z,13.00
2019-01-28T17:41:30.703Z,9.83
2019-01-28T17:44:12.208Z,9.20
2019-01-28T17:46:52.937Z,9.17
2019-01-28T17:49:34.330Z,13.30
2019-01-28T17:52:15.584Z,12.73
2019-01-28T17:57:54.418Z,9.07
2019-01-28T18:06:24.053Z,12.90
2019-01-28T18:09:05.307Z,8.33
2019-01-28T18:17:31.594Z,7.33
2019-01-28T18:20:14.820Z,9.33
2019-01-28T18:25:43.417Z,4.73
2019-01-28T18:31:13.547Z,12.20
2019-01-28T18:33:54.858Z,8.90
2019-01-28T18:36:23.823Z,5.47
2019-01-28T18:39:11.977Z,6.97
2019-01-28T18:42:00.144Z,7.27
2019-01-28T18:44:48.340Z,7.40
2019-01-28T18:47:36.345Z,7.90
2019-01-28T18:50:24.752Z,5.37
2019-01-28T18:53:12.773Z,7.13
2019-01-28T18:56:01.192Z,7.43
2019-01-28T18:58:50.797Z,7.07
2019-01-28T19:01:38.926Z,11.77
2019-01-28T19:04:26.973Z,8.47
2019-01-28T19:07:15.109Z,12.23
2019-01-28T19:13:11.961Z,5.10
2019-01-28T19:16:00.220Z,7.77
2019-01-28T19:27:05.164Z,4.33
2019-01-28T19:32:33.237Z,6.13
2019-01-28T19:35:14.725Z,9.80
2019-01-28T19:37:55.989Z,9.90
2019-01-28T19:40:36.458Z,10.80
2019-01-28T19:43:17.797Z,8.53
2019-01-28T19:45:59.224Z,8.50
2019-01-28T19:48:40.659Z,8.50
2019-01-28T19:51:21.220Z,12.57
2019-01-28T19:54:02.734Z,7.57
2019-01-28T19:56:44.136Z,5.87
2019-01-28T19:59:23.327Z,10.90
2019-01-28T20:02:11.570Z,8.40
2019-01-28T20:05:19.723Z,10.40
2019-01-28T20:08:07.813Z,11.57
2019-01-28T20:10:56.012Z,8.87
2019-01-28T20:14:04.174Z,9.23
2019-01-28T20:16:52.262Z,12.40
2019-01-28T20:19:33.661Z,13.20
2019-01-28T20:22:14.718Z,11.70
2019-01-28T20:24:56.147Z,9.90
2019-01-28T20:27:37.497Z,8.08
2019-01-28T20:30:19.075Z,13.30
2019-01-28T20:33:00.337Z,10.60
2019-01-28T20:35:42.939Z,7.33
2019-01-28T20:38:24.358Z,10.93
2019-01-28T20:41:05.768Z,11.37
2019-01-28T20:43:47.172Z,10.27
2019-01-28T20:46:28.534Z,15.57
2019-01-28T20:49:09.088Z,13.37
2019-01-28T20:51:50.433Z,10.30
2019-01-28T20:57:13.999Z,10.93
2019-01-28T20:59:55.134Z,6.37
2019-01-28T21:02:37.647Z,15.17
2019-01-28T21:05:18.982Z,13.90
2019-01-28T21:08:00.568Z,16.33
2019-01-28T21:10:41.780Z,10.63
2019-01-28T21:13:22.304Z,15.70
2019-01-28T21:16:03.337Z,9.90
2019-01-28T21:18:44.641Z,8.37
2019-01-28T21:21:26.295Z,9.90
2019-01-28T21:24:09.710Z,7.83
2019-01-28T21:26:50.694Z,16.27
2019-01-28T21:29:32.195Z,8.07
2019-01-28T21:32:15.137Z,9.20
2019-01-28T21:37:39.569Z,12.50
2019-01-28T21:40:21.025Z,11.67
2019-01-28T21:43:02.126Z,8.07
2019-01-28T21:45:43.382Z,13.70
2019-01-28T21:48:24.687Z,11.80
2019-01-28T21:51:07.104Z,11.77
2019-01-28T21:53:48.617Z,11.63
2019-01-28T21:56:30.060Z,7.87
2019-01-28T21:59:11.166Z,9.80
2019-01-28T22:01:52.572Z,11.67
2019-01-28T22:04:33.833Z,10.00
2019-01-28T22:09:58.404Z,12.17
2019-01-28T22:12:39.812Z,13.13
2019-01-28T22:15:21.062Z,10.40
2019-01-28T22:18:02.343Z,11.70
2019-01-28T22:20:43.796Z,17.10
2019-01-28T22:23:25.275Z,14.63
2019-01-28T22:26:10.934Z,14.30
2019-01-28T22:28:52.229Z,12.73
2019-01-28T22:31:33.469Z,13.10
2019-01-28T22:34:14.769Z,14.50
2019-01-28T22:36:56.034Z,11.20
2019-01-28T22:39:37.221Z,13.60
2019-01-28T22:42:21.401Z,11.80
2019-01-28T22:45:01.164Z,12.50
2019-01-28T22:47:42.229Z,9.33
2019-01-28T22:50:21.517Z,14.03
2019-01-28T22:53:09.614Z,14.10
2019-01-28T22:55:57.758Z,11.90
2019-01-28T22:58:45.837Z,10.50
2019-01-28T23:01:34.401Z,12.83
2019-01-28T23:04:22.794Z,14.13
2019-01-28T23:07:10.929Z,13.67
2019-01-28T23:09:58.964Z,15.90
2019-01-28T23:12:47.010Z,21.23
2019-01-28T23:15:35.101Z,10.27
2019-01-28T23:21:38.833Z,12.17
2019-01-28T23:24:26.970Z,10.07
2019-01-28T23:30:09.321Z,14.53
2019-01-28T23:32:57.449Z,10.50
2019-01-28T23:35:45.579Z,17.87
2019-01-28T23:38:34.056Z,12.17
2019-01-28T23:41:15.361Z,12.27
2019-01-28T23:46:45.497Z,14.70
2019-01-28T23:52:13.042Z,20.90
2019-01-28T23:57:41.445Z,18.03
